sensor_id;sensor_type;location;lat;lon;timestamp;pressure;altitude;pressure_sealevel;temperature;humidity
27729;BME280;15126;42.186;24.340;2023-02-23T00:00:18;99253.56;;;10.15;62.29
27729;BME280;15126;42.186;24.340;2023-02-23T00:02:52;99249.25;;;10.10;62.69
27729;BME280;15126;42.186;24.340;2023-02-23T00:05:20;99255.56;;;10.11;62.60
27729;BME280;15126;42.186;24.340;2023-02-23T00:07:47;99252.09;;;10.07;62.86
27729;BME280;15126;42.186;24.340;2023-02-23T00:10:16;99230.09;;;9.93;63.34
27729;BME280;15126;42.186;24.340;2023-02-23T00:12:47;99256.09;;;10.06;62.85
27729;BME280;15126;42.186;24.340;2023-02-23T00:15:14;99258.72;;;9.93;63.10
27729;BME280;15126;42.186;24.340;2023-02-23T00:17:42;99258.28;;;9.95;63.50
27729;BME280;15126;42.186;24.340;2023-02-23T00:20:12;99256.56;;;9.81;64.00
27729;BME280;15126;42.186;24.340;2023-02-23T00:22:41;99259.78;;;9.80;63.71
27729;BME280;15126;42.186;24.340;2023-02-23T00:25:09;99266.94;;;9.81;64.47
27729;BME280;15126;42.186;24.340;2023-02-23T00:27:37;99266.25;;;9.73;64.79
27729;BME280;15126;42.186;24.340;2023-02-23T00:30:12;99265.50;;;9.73;64.94
27729;BME280;15126;42.186;24.340;2023-02-23T00:32:39;99246.13;;;9.66;64.70
27729;BME280;15126;42.186;24.340;2023-02-23T00:35:07;99259.94;;;9.73;64.45
27729;BME280;15126;42.186;24.340;2023-02-23T00:37:42;99261.44;;;9.77;64.39
27729;BME280;15126;42.186;24.340;2023-02-23T00:40:12;99243.34;;;9.66;64.74
27729;BME280;15126;42.186;24.340;2023-02-23T00:42:42;99256.06;;;9.67;64.82
27729;BME280;15126;42.186;24.340;2023-02-23T00:45:11;99250.50;;;9.67;65.22
27729;BME280;15126;42.186;24.340;2023-02-23T00:47:39;99251.47;;;9.56;65.63
27729;BME280;15126;42.186;24.340;2023-02-23T00:50:09;99243.38;;;9.42;66.46
27729;BME280;15126;42.186;24.340;2023-02-23T00:52:38;99251.44;;;9.37;66.74
27729;BME280;15126;42.186;24.340;2023-02-23T00:55:06;99248.69;;;9.33;66.88
27729;BME280;15126;42.186;24.340;2023-02-23T00:57:34;99254.41;;;9.26;67.20
27729;BME280;15126;42.186;24.340;2023-02-23T01:00:01;99243.75;;;9.21;67.57
27729;BME280;15126;42.186;24.340;2023-02-23T01:02:39;99251.66;;;9.23;67.52
27729;BME280;15126;42.186;24.340;2023-02-23T01:05:07;99254.81;;;9.25;66.93
27729;BME280;15126;42.186;24.340;2023-02-23T01:07:35;99253.59;;;9.26;67.19
27729;BME280;15126;42.186;24.340;2023-02-23T01:10:03;99253.66;;;9.22;68.05
27729;BME280;15126;42.186;24.340;2023-02-23T01:12:44;99259.66;;;9.21;68.29
27729;BME280;15126;42.186;24.340;2023-02-23T01:15:11;99259.97;;;9.26;67.54
27729;BME280;15126;42.186;24.340;2023-02-23T01:17:39;99261.03;;;9.32;67.08
27729;BME280;15126;42.186;24.340;2023-02-23T01:20:09;99244.03;;;9.27;66.61
27729;BME280;15126;42.186;24.340;2023-02-23T01:22:41;99254.25;;;9.33;66.19
27729;BME280;15126;42.186;24.340;2023-02-23T01:25:08;99250.63;;;9.36;66.35
27729;BME280;15126;42.186;24.340;2023-02-23T01:27:37;99260.72;;;9.27;67.10
27729;BME280;15126;42.186;24.340;2023-02-23T01:30:04;99255.00;;;9.14;66.97
27729;BME280;15126;42.186;24.340;2023-02-23T01:32:33;99261.16;;;9.02;67.16
27729;BME280;15126;42.186;24.340;2023-02-23T01:35:03;99261.25;;;8.95;66.31
27729;BME280;15126;42.186;24.340;2023-02-23T01:37:33;99249.66;;;9.00;65.47
27729;BME280;15126;42.186;24.340;2023-02-23T01:40:01;99259.63;;;8.97;65.49
27729;BME280;15126;42.186;24.340;2023-02-23T01:42:37;99260.53;;;8.91;65.83
27729;BME280;15126;42.186;24.340;2023-02-23T01:45:24;99271.28;;;8.89;65.89
27729;BME280;15126;42.186;24.340;2023-02-23T01:47:54;99263.16;;;8.75;66.39
27729;BME280;15126;42.186;24.340;2023-02-23T01:50:24;99262.94;;;8.62;66.79
27729;BME280;15126;42.186;24.340;2023-02-23T01:52:53;99266.50;;;8.63;66.11
27729;BME280;15126;42.186;24.340;2023-02-23T01:55:22;99262.09;;;8.65;65.44
27729;BME280;15126;42.186;24.340;2023-02-23T01:57:57;99261.09;;;8.52;66.41
27729;BME280;15126;42.186;24.340;2023-02-23T02:00:27;99258.81;;;8.44;66.70
27729;BME280;15126;42.186;24.340;2023-02-23T02:02:55;99261.28;;;8.38;66.63
27729;BME280;15126;42.186;24.340;2023-02-23T02:05:24;99266.81;;;8.42;65.73
27729;BME280;15126;42.186;24.340;2023-02-23T02:07:51;99262.88;;;8.39;65.70
27729;BME280;15126;42.186;24.340;2023-02-23T02:10:25;99262.91;;;8.35;65.55
27729;BME280;15126;42.186;24.340;2023-02-23T02:13:08;99255.03;;;8.30;65.57
27729;BME280;15126;42.186;24.340;2023-02-23T02:15:47;99267.72;;;8.31;64.81
27729;BME280;15126;42.186;24.340;2023-02-23T02:18:25;99266.22;;;8.23;65.87
27729;BME280;15126;42.186;24.340;2023-02-23T02:21:25;99264.22;;;8.24;66.23
27729;BME280;15126;42.186;24.340;2023-02-23T02:24:27;99268.66;;;8.18;66.87
27729;BME280;15126;42.186;24.340;2023-02-23T02:27:11;99270.25;;;8.15;66.74
27729;BME280;15126;42.186;24.340;2023-02-23T02:30:12;99271.84;;;8.16;65.94
27729;BME280;15126;42.186;24.340;2023-02-23T02:38:46;99240.91;;;7.84;66.90
27729;BME280;15126;42.186;24.340;2023-02-23T02:41:19;99274.31;;;8.07;65.99
27729;BME280;15126;42.186;24.340;2023-02-23T02:43:57;99268.03;;;8.03;66.81
27729;BME280;15126;42.186;24.340;2023-02-23T02:46:28;99265.25;;;8.03;66.29
27729;BME280;15126;42.186;24.340;2023-02-23T02:49:00;99261.72;;;7.99;66.89
27729;BME280;15126;42.186;24.340;2023-02-23T02:51:34;99272.81;;;8.03;66.08
27729;BME280;15126;42.186;24.340;2023-02-23T02:54:11;99254.66;;;7.95;65.94
27729;BME280;15126;42.186;24.340;2023-02-23T02:56:42;99269.28;;;7.99;66.95
27729;BME280;15126;42.186;24.340;2023-02-23T02:59:12;99270.91;;;7.96;66.13
27729;BME280;15126;42.186;24.340;2023-02-23T03:01:57;99268.97;;;7.93;66.00
27729;BME280;15126;42.186;24.340;2023-02-23T03:04:41;99271.09;;;7.78;67.11
27729;BME280;15126;42.186;24.340;2023-02-23T03:07:29;99271.28;;;7.61;67.80
27729;BME280;15126;42.186;24.340;2023-02-23T03:10:21;99264.94;;;7.60;67.49
27729;BME280;15126;42.186;24.340;2023-02-23T03:13:17;99276.09;;;7.53;67.84
27729;BME280;15126;42.186;24.340;2023-02-23T03:16:12;99261.97;;;7.41;68.63
27729;BME280;15126;42.186;24.340;2023-02-23T03:19:08;99271.81;;;7.45;68.36
27729;BME280;15126;42.186;24.340;2023-02-23T03:22:03;99275.03;;;7.44;68.21
27729;BME280;15126;42.186;24.340;2023-02-23T03:24:54;99285.69;;;7.45;67.62
27729;BME280;15126;42.186;24.340;2023-02-23T03:27:45;99287.38;;;7.36;67.58
27729;BME280;15126;42.186;24.340;2023-02-23T03:30:39;99288.63;;;7.28;68.75
27729;BME280;15126;42.186;24.340;2023-02-23T03:33:34;99276.06;;;7.12;68.88
27729;BME280;15126;42.186;24.340;2023-02-23T03:36:23;99292.25;;;7.17;68.90
27729;BME280;15126;42.186;24.340;2023-02-23T03:39:14;99295.03;;;7.17;68.30
27729;BME280;15126;42.186;24.340;2023-02-23T03:42:03;99306.34;;;6.89;68.97
27729;BME280;15126;42.186;24.340;2023-02-23T03:44:51;99300.91;;;6.72;69.05
27729;BME280;15126;42.186;24.340;2023-02-23T03:47:40;99303.19;;;6.87;68.74
27729;BME280;15126;42.186;24.340;2023-02-23T03:50:29;99278.00;;;6.64;69.33
27729;BME280;15126;42.186;24.340;2023-02-23T03:53:17;99305.63;;;6.82;68.92
27729;BME280;15126;42.186;24.340;2023-02-23T03:56:03;99289.06;;;6.71;68.55
27729;BME280;15126;42.186;24.340;2023-02-23T03:58:51;99302.56;;;6.62;69.77
27729;BME280;15126;42.186;24.340;2023-02-23T04:01:40;99302.56;;;6.62;69.69
27729;BME280;15126;42.186;24.340;2023-02-23T04:04:26;99305.72;;;6.64;70.61
27729;BME280;15126;42.186;24.340;2023-02-23T04:07:14;99290.72;;;6.54;70.03
27729;BME280;15126;42.186;24.340;2023-02-23T04:10:00;99314.50;;;6.52;71.22
27729;BME280;15126;42.186;24.340;2023-02-23T04:12:51;99303.38;;;6.59;69.78
27729;BME280;15126;42.186;24.340;2023-02-23T04:15:38;99289.59;;;6.45;69.93
27729;BME280;15126;42.186;24.340;2023-02-23T04:18:11;99299.44;;;6.53;69.32
27729;BME280;15126;42.186;24.340;2023-02-23T04:20:38;99308.91;;;6.59;68.85
27729;BME280;15126;42.186;24.340;2023-02-23T04:23:05;99304.94;;;6.60;68.83
27729;BME280;15126;42.186;24.340;2023-02-23T04:25:32;99307.31;;;6.58;69.36
27729;BME280;15126;42.186;24.340;2023-02-23T04:27:59;99310.56;;;6.46;70.22
27729;BME280;15126;42.186;24.340;2023-02-23T04:30:26;99300.34;;;6.32;70.30
27729;BME280;15126;42.186;24.340;2023-02-23T04:32:54;99305.06;;;6.35;70.43
27729;BME280;15126;42.186;24.340;2023-02-23T04:35:22;99291.66;;;6.27;70.45
27729;BME280;15126;42.186;24.340;2023-02-23T04:37:49;99312.16;;;6.43;69.54
27729;BME280;15126;42.186;24.340;2023-02-23T04:40:17;99308.16;;;6.48;68.64
27729;BME280;15126;42.186;24.340;2023-02-23T04:42:43;99314.50;;;6.52;68.72
27729;BME280;15126;42.186;24.340;2023-02-23T04:45:10;99315.25;;;6.52;69.03
27729;BME280;15126;42.186;24.340;2023-02-23T04:47:37;99312.91;;;6.54;68.48
27729;BME280;15126;42.186;24.340;2023-02-23T04:50:05;99313.28;;;6.56;68.27
27729;BME280;15126;42.186;24.340;2023-02-23T04:52:33;99316.84;;;6.57;68.33
27729;BME280;15126;42.186;24.340;2023-02-23T04:55:02;99322.81;;;6.52;69.08
27729;BME280;15126;42.186;24.340;2023-02-23T04:57:29;99312.91;;;6.51;69.21
27729;BME280;15126;42.186;24.340;2023-02-23T04:59:56;99313.31;;;6.49;69.46
27729;BME280;15126;42.186;24.340;2023-02-23T05:02:23;99317.66;;;6.47;69.25
27729;BME280;15126;42.186;24.340;2023-02-23T05:04:50;99320.03;;;6.52;68.95
27729;BME280;15126;42.186;24.340;2023-02-23T05:07:17;99318.88;;;6.49;68.60
27729;BME280;15126;42.186;24.340;2023-02-23T05:09:45;99322.03;;;6.48;68.77
27729;BME280;15126;42.186;24.340;2023-02-23T05:12:12;99322.47;;;6.36;69.96
27729;BME280;15126;42.186;24.340;2023-02-23T05:14:38;99323.25;;;6.40;69.95
27729;BME280;15126;42.186;24.340;2023-02-23T05:17:05;99333.53;;;6.43;70.30
27729;BME280;15126;42.186;24.340;2023-02-23T05:19:32;99324.41;;;6.39;70.41
27729;BME280;15126;42.186;24.340;2023-02-23T05:21:59;99321.69;;;6.35;70.88
27729;BME280;15126;42.186;24.340;2023-02-23T05:24:26;99337.50;;;6.35;71.31
27729;BME280;15126;42.186;24.340;2023-02-23T05:26:54;99326.84;;;6.26;70.97
27729;BME280;15126;42.186;24.340;2023-02-23T05:29:21;99344.97;;;6.41;70.42
27729;BME280;15126;42.186;24.340;2023-02-23T05:31:48;99350.53;;;6.41;70.51
27729;BME280;15126;42.186;24.340;2023-02-23T05:34:15;99350.94;;;6.40;70.62
27729;BME280;15126;42.186;24.340;2023-02-23T05:36:42;99348.53;;;6.45;70.51
27729;BME280;15126;42.186;24.340;2023-02-23T05:39:08;99346.19;;;6.44;69.08
27729;BME280;15126;42.186;24.340;2023-02-23T05:41:35;99354.88;;;6.49;69.41
27729;BME280;15126;42.186;24.340;2023-02-23T05:44:04;99343.78;;;6.46;69.29
27729;BME280;15126;42.186;24.340;2023-02-23T05:46:31;99365.91;;;6.53;70.09
27729;BME280;15126;42.186;24.340;2023-02-23T05:48:59;99361.19;;;6.50;70.86
27729;BME280;15126;42.186;24.340;2023-02-23T05:51:28;99370.66;;;6.52;70.67
27729;BME280;15126;42.186;24.340;2023-02-23T05:53:55;99371.44;;;6.56;71.23
27729;BME280;15126;42.186;24.340;2023-02-23T05:56:23;99377.38;;;6.62;71.33
27729;BME280;15126;42.186;24.340;2023-02-23T05:58:51;99366.66;;;6.60;70.67
27729;BME280;15126;42.186;24.340;2023-02-23T06:01:21;99381.63;;;6.84;70.98
27729;BME280;15126;42.186;24.340;2023-02-23T06:03:48;99380.75;;;6.94;70.33
27729;BME280;15126;42.186;24.340;2023-02-23T06:06:16;99369.69;;;6.94;69.43
27729;BME280;15126;42.186;24.340;2023-02-23T06:08:43;99393.28;;;7.20;68.96
27729;BME280;15126;42.186;24.340;2023-02-23T06:11:11;99392.44;;;7.27;68.26
27729;BME280;15126;42.186;24.340;2023-02-23T06:13:38;99406.59;;;7.43;67.96
27729;BME280;15126;42.186;24.340;2023-02-23T06:16:06;99409.69;;;7.55;67.88
27729;BME280;15126;42.186;24.340;2023-02-23T06:18:35;99396.91;;;7.65;67.22
27729;BME280;15126;42.186;24.340;2023-02-23T06:21:02;99388.16;;;7.70;67.35
27729;BME280;15126;42.186;24.340;2023-02-23T06:23:30;99411.75;;;7.92;67.08
27729;BME280;15126;42.186;24.340;2023-02-23T06:25:57;99408.84;;;8.06;66.74
27729;BME280;15126;42.186;24.340;2023-02-23T06:28:24;99406.00;;;8.13;66.32
27729;BME280;15126;42.186;24.340;2023-02-23T06:30:51;99400.88;;;8.12;66.79
27729;BME280;15126;42.186;24.340;2023-02-23T06:33:18;99403.50;;;8.26;66.59
27729;BME280;15126;42.186;24.340;2023-02-23T06:35:47;99414.94;;;8.35;66.56
27729;BME280;15126;42.186;24.340;2023-02-23T06:38:14;99415.59;;;8.46;66.43
27729;BME280;15126;42.186;24.340;2023-02-23T06:40:41;99423.09;;;8.53;66.46
27729;BME280;15126;42.186;24.340;2023-02-23T06:43:08;99419.38;;;8.63;66.87
27729;BME280;15126;42.186;24.340;2023-02-23T06:45:35;99424.47;;;8.68;66.88
27729;BME280;15126;42.186;24.340;2023-02-23T06:48:05;99420.72;;;8.85;66.95
27729;BME280;15126;42.186;24.340;2023-02-23T06:50:32;99422.28;;;8.86;65.69
27729;BME280;15126;42.186;24.340;2023-02-23T06:53:00;99424.97;;;8.93;66.19
27729;BME280;15126;42.186;24.340;2023-02-23T06:55:27;99424.03;;;9.03;66.04
27729;BME280;15126;42.186;24.340;2023-02-23T06:57:54;99421.91;;;9.14;65.51
27729;BME280;15126;42.186;24.340;2023-02-23T07:00:22;99412.75;;;9.14;65.05
27729;BME280;15126;42.186;24.340;2023-02-23T07:02:48;99418.81;;;9.09;66.00
27729;BME280;15126;42.186;24.340;2023-02-23T07:05:16;99400.84;;;9.13;66.12
27729;BME280;15126;42.186;24.340;2023-02-23T07:07:42;99422.00;;;9.37;65.94
27729;BME280;15126;42.186;24.340;2023-02-23T07:10:11;99412.41;;;9.38;65.57
27729;BME280;15126;42.186;24.340;2023-02-23T07:12:38;99423.34;;;9.52;65.97
27729;BME280;15126;42.186;24.340;2023-02-23T07:15:06;99420.34;;;9.67;64.80
27729;BME280;15126;42.186;24.340;2023-02-23T07:17:33;99411.38;;;9.79;64.51
27729;BME280;15126;42.186;24.340;2023-02-23T07:20:00;99419.16;;;9.91;64.38
27729;BME280;15126;42.186;24.340;2023-02-23T07:22:27;99411.16;;;9.93;63.96
27729;BME280;15126;42.186;24.340;2023-02-23T07:24:55;99418.41;;;10.10;64.23
27729;BME280;15126;42.186;24.340;2023-02-23T07:27:23;99415.78;;;10.26;63.42
27729;BME280;15126;42.186;24.340;2023-02-23T07:29:50;99414.56;;;10.27;62.97
27729;BME280;15126;42.186;24.340;2023-02-23T07:32:16;99417.06;;;10.41;62.41
27729;BME280;15126;42.186;24.340;2023-02-23T07:34:43;99420.25;;;10.43;62.69
27729;BME280;15126;42.186;24.340;2023-02-23T07:37:12;99416.94;;;10.48;63.04
27729;BME280;15126;42.186;24.340;2023-02-23T07:39:39;99419.25;;;10.53;62.71
27729;BME280;15126;42.186;24.340;2023-02-23T07:42:05;99425.06;;;10.62;63.14
27729;BME280;15126;42.186;24.340;2023-02-23T07:44:33;99401.31;;;10.54;63.58
27729;BME280;15126;42.186;24.340;2023-02-23T07:47:00;99427.84;;;10.62;62.45
27729;BME280;15126;42.186;24.340;2023-02-23T07:49:28;99413.19;;;10.78;61.77
27729;BME280;15126;42.186;24.340;2023-02-23T07:51:55;99416.94;;;10.88;61.70
27729;BME280;15126;42.186;24.340;2023-02-23T07:54:22;99416.81;;;10.95;61.95
27729;BME280;15126;42.186;24.340;2023-02-23T07:56:49;99413.78;;;11.05;61.23
27729;BME280;15126;42.186;24.340;2023-02-23T07:59:16;99410.16;;;11.08;62.23
27729;BME280;15126;42.186;24.340;2023-02-23T08:01:44;99418.78;;;11.14;61.65
27729;BME280;15126;42.186;24.340;2023-02-23T08:04:11;99417.97;;;11.33;60.66
27729;BME280;15126;42.186;24.340;2023-02-23T08:06:38;99418.13;;;11.26;61.04
27729;BME280;15126;42.186;24.340;2023-02-23T08:09:05;99415.22;;;11.49;60.49
27729;BME280;15126;42.186;24.340;2023-02-23T08:11:32;99414.97;;;11.60;60.84
27729;BME280;15126;42.186;24.340;2023-02-23T08:13:59;99415.56;;;11.67;59.10
27729;BME280;15126;42.186;24.340;2023-02-23T08:16:26;99410.28;;;11.73;60.68
27729;BME280;15126;42.186;24.340;2023-02-23T08:18:57;99419.34;;;11.93;60.54
27729;BME280;15126;42.186;24.340;2023-02-23T08:21:24;99412.53;;;11.78;60.12
27729;BME280;15126;42.186;24.340;2023-02-23T08:23:52;99414.00;;;11.82;59.55
27729;BME280;15126;42.186;24.340;2023-02-23T08:26:20;99403.88;;;12.05;60.04
27729;BME280;15126;42.186;24.340;2023-02-23T08:28:48;99407.66;;;12.14;59.17
27729;BME280;15126;42.186;24.340;2023-02-23T08:31:15;99406.41;;;12.15;59.19
27729;BME280;15126;42.186;24.340;2023-02-23T08:33:43;99414.09;;;12.11;59.41
27729;BME280;15126;42.186;24.340;2023-02-23T08:36:12;99411.84;;;12.06;58.61
27729;BME280;15126;42.186;24.340;2023-02-23T08:38:38;99403.63;;;11.99;58.48
27729;BME280;15126;42.186;24.340;2023-02-23T08:41:05;99408.53;;;11.95;59.78
27729;BME280;15126;42.186;24.340;2023-02-23T08:43:32;99400.94;;;11.96;60.74
27729;BME280;15126;42.186;24.340;2023-02-23T08:45:59;99399.88;;;12.06;59.73
27729;BME280;15126;42.186;24.340;2023-02-23T08:48:26;99391.16;;;12.04;60.49
27729;BME280;15126;42.186;24.340;2023-02-23T08:50:55;99408.84;;;12.13;59.96
27729;BME280;15126;42.186;24.340;2023-02-23T08:53:24;99404.03;;;12.30;59.81
27729;BME280;15126;42.186;24.340;2023-02-23T08:55:55;99406.19;;;12.38;59.15
27729;BME280;15126;42.186;24.340;2023-02-23T08:58:22;99411.50;;;12.49;60.77
27729;BME280;15126;42.186;24.340;2023-02-23T09:00:49;99408.66;;;12.65;59.50
27729;BME280;15126;42.186;24.340;2023-02-23T09:03:16;99409.78;;;12.68;59.28
27729;BME280;15126;42.186;24.340;2023-02-23T09:05:43;99402.66;;;12.79;58.90
27729;BME280;15126;42.186;24.340;2023-02-23T09:08:11;99385.56;;;12.61;56.99
27729;BME280;15126;42.186;24.340;2023-02-23T09:10:39;99401.06;;;12.78;57.44
27729;BME280;15126;42.186;24.340;2023-02-23T09:13:08;99408.84;;;12.99;57.16
27729;BME280;15126;42.186;24.340;2023-02-23T09:15:36;99392.06;;;12.99;56.05
27729;BME280;15126;42.186;24.340;2023-02-23T09:18:03;99408.69;;;13.19;57.21
27729;BME280;15126;42.186;24.340;2023-02-23T09:20:30;99409.25;;;13.27;55.96
27729;BME280;15126;42.186;24.340;2023-02-23T09:22:56;99403.31;;;13.25;56.25
27729;BME280;15126;42.186;24.340;2023-02-23T09:25:24;99387.75;;;13.24;56.37
27729;BME280;15126;42.186;24.340;2023-02-23T09:27:54;99381.63;;;13.29;57.27
27729;BME280;15126;42.186;24.340;2023-02-23T09:30:22;99402.78;;;13.55;55.98
27729;BME280;15126;42.186;24.340;2023-02-23T09:32:50;99388.31;;;13.56;54.97
27729;BME280;15126;42.186;24.340;2023-02-23T09:35:18;99402.69;;;13.58;54.61
27729;BME280;15126;42.186;24.340;2023-02-23T09:37:46;99399.88;;;13.71;55.63
27729;BME280;15126;42.186;24.340;2023-02-23T09:40:16;99394.38;;;13.80;52.89
27729;BME280;15126;42.186;24.340;2023-02-23T09:42:50;99396.97;;;13.75;54.84
27729;BME280;15126;42.186;24.340;2023-02-23T09:45:26;99396.84;;;13.65;53.87
27729;BME280;15126;42.186;24.340;2023-02-23T09:48:10;99395.59;;;13.79;54.49
27729;BME280;15126;42.186;24.340;2023-02-23T09:50:42;99396.16;;;13.74;53.57
27729;BME280;15126;42.186;24.340;2023-02-23T09:53:23;99389.75;;;13.86;54.91
27729;BME280;15126;42.186;24.340;2023-02-23T09:55:52;99397.03;;;13.96;53.29
27729;BME280;15126;42.186;24.340;2023-02-23T09:58:22;99390.81;;;14.14;51.94
27729;BME280;15126;42.186;24.340;2023-02-23T10:03:47;99388.88;;;14.23;51.75
27729;BME280;15126;42.186;24.340;2023-02-23T10:06:16;99386.66;;;14.18;52.24
27729;BME280;15126;42.186;24.340;2023-02-23T10:08:53;99381.53;;;14.04;54.86
27729;BME280;15126;42.186;24.340;2023-02-23T10:11:25;99375.13;;;14.04;54.87
27729;BME280;15126;42.186;24.340;2023-02-23T10:14:05;99366.09;;;14.21;54.82
27729;BME280;15126;42.186;24.340;2023-02-23T10:16:43;99377.00;;;14.19;52.07
27729;BME280;15126;42.186;24.340;2023-02-23T10:19:19;99365.78;;;14.19;52.64
27729;BME280;15126;42.186;24.340;2023-02-23T10:21:52;99358.03;;;14.23;53.26
27729;BME280;15126;42.186;24.340;2023-02-23T10:24:23;99356.91;;;14.34;51.99
27729;BME280;15126;42.186;24.340;2023-02-23T10:26:55;99355.91;;;14.49;51.86
27729;BME280;15126;42.186;24.340;2023-02-23T10:29:27;99351.22;;;14.68;52.08
27729;BME280;15126;42.186;24.340;2023-02-23T10:31:59;99354.22;;;14.73;52.29
27729;BME280;15126;42.186;24.340;2023-02-23T10:34:28;99355.72;;;14.87;52.98
27729;BME280;15126;42.186;24.340;2023-02-23T10:36:59;99352.72;;;14.81;50.60
27729;BME280;15126;42.186;24.340;2023-02-23T10:39:27;99348.00;;;14.78;50.22
27729;BME280;15126;42.186;24.340;2023-02-23T10:41:57;99348.53;;;14.86;49.91
27729;BME280;15126;42.186;24.340;2023-02-23T10:44:26;99339.41;;;14.95;50.08
27729;BME280;15126;42.186;24.340;2023-02-23T10:46:58;99337.81;;;14.94;49.88
27729;BME280;15126;42.186;24.340;2023-02-23T10:49:34;99327.97;;;14.89;50.04
27729;BME280;15126;42.186;24.340;2023-02-23T10:52:04;99327.28;;;15.07;49.76
27729;BME280;15126;42.186;24.340;2023-02-23T10:54:40;99327.47;;;15.12;49.42
27729;BME280;15126;42.186;24.340;2023-02-23T10:57:10;99323.25;;;15.17;49.45
27729;BME280;15126;42.186;24.340;2023-02-23T11:00:09;99322.56;;;15.34;49.30
27729;BME280;15126;42.186;24.340;2023-02-23T11:02:54;99322.25;;;15.32;49.79
27729;BME280;15126;42.186;24.340;2023-02-23T11:05:42;99321.03;;;15.42;48.90
27729;BME280;15126;42.186;24.340;2023-02-23T11:08:17;99316.28;;;15.30;49.09
27729;BME280;15126;42.186;24.340;2023-02-23T11:11:07;99318.09;;;15.46;49.49
27729;BME280;15126;42.186;24.340;2023-02-23T11:13:38;99301.25;;;15.15;48.96
27729;BME280;15126;42.186;24.340;2023-02-23T11:16:11;99310.53;;;15.34;49.28
27729;BME280;15126;42.186;24.340;2023-02-23T11:18:41;99304.06;;;15.46;49.38
27729;BME280;15126;42.186;24.340;2023-02-23T11:21:10;99302.97;;;15.53;49.45
27729;BME280;15126;42.186;24.340;2023-02-23T11:23:38;99308.91;;;15.55;49.03
27729;BME280;15126;42.186;24.340;2023-02-23T11:29:13;99296.09;;;15.54;51.14
27729;BME280;15126;42.186;24.340;2023-02-23T11:31:46;99291.91;;;15.67;50.01
27729;BME280;15126;42.186;24.340;2023-02-23T11:34:23;99286.44;;;15.64;49.40
27729;BME280;15126;42.186;24.340;2023-02-23T11:37:02;99293.22;;;15.84;50.01
27729;BME280;15126;42.186;24.340;2023-02-23T11:39:29;99292.09;;;15.82;48.91
27729;BME280;15126;42.186;24.340;2023-02-23T11:42:11;99293.97;;;15.94;48.78
27729;BME280;15126;42.186;24.340;2023-02-23T11:44:39;99299.59;;;15.94;50.11
27729;BME280;15126;42.186;24.340;2023-02-23T11:47:13;99298.19;;;15.98;49.91
27729;BME280;15126;42.186;24.340;2023-02-23T11:49:45;99280.38;;;16.01;49.10
27729;BME280;15126;42.186;24.340;2023-02-23T11:52:16;99290.25;;;16.06;48.92
27729;BME280;15126;42.186;24.340;2023-02-23T11:54:50;99288.06;;;15.92;48.50
27729;BME280;15126;42.186;24.340;2023-02-23T11:57:21;99292.28;;;16.05;48.75
27729;BME280;15126;42.186;24.340;2023-02-23T11:59:50;99292.91;;;16.00;47.61
27729;BME280;15126;42.186;24.340;2023-02-23T12:02:22;99296.81;;;16.03;48.58
27729;BME280;15126;42.186;24.340;2023-02-23T12:05:00;99283.97;;;15.93;48.16
27729;BME280;15126;42.186;24.340;2023-02-23T12:07:33;99287.13;;;16.13;48.82
27729;BME280;15126;42.186;24.340;2023-02-23T12:10:12;99286.94;;;15.98;47.54
27729;BME280;15126;42.186;24.340;2023-02-23T12:12:49;99289.94;;;16.13;47.03
27729;BME280;15126;42.186;24.340;2023-02-23T12:15:26;99288.22;;;16.16;47.29
27729;BME280;15126;42.186;24.340;2023-02-23T12:17:58;99281.91;;;16.48;46.62
27729;BME280;15126;42.186;24.340;2023-02-23T12:20:33;99283.50;;;16.58;45.66
27729;BME280;15126;42.186;24.340;2023-02-23T12:23:06;99284.56;;;16.70;45.97
27729;BME280;15126;42.186;24.340;2023-02-23T12:25:38;99290.53;;;16.62;45.84
27729;BME280;15126;42.186;24.340;2023-02-23T12:28:12;99286.44;;;16.63;46.57
27729;BME280;15126;42.186;24.340;2023-02-23T12:30:45;99278.91;;;16.79;46.15
27729;BME280;15126;42.186;24.340;2023-02-23T12:33:17;99290.50;;;16.81;46.51
27729;BME280;15126;42.186;24.340;2023-02-23T12:35:53;99298.00;;;16.84;46.70
27729;BME280;15126;42.186;24.340;2023-02-23T12:38:26;99292.66;;;16.86;46.13
27729;BME280;15126;42.186;24.340;2023-02-23T12:41:02;99298.88;;;16.99;46.50
27729;BME280;15126;42.186;24.340;2023-02-23T12:43:36;99293.94;;;16.85;46.34
27729;BME280;15126;42.186;24.340;2023-02-23T12:46:09;99301.59;;;16.84;47.36
27729;BME280;15126;42.186;24.340;2023-02-23T12:48:47;99298.94;;;16.90;46.33
27729;BME280;15126;42.186;24.340;2023-02-23T12:51:23;99300.38;;;16.76;46.45
27729;BME280;15126;42.186;24.340;2023-02-23T12:53:51;99287.81;;;16.77;46.36
27729;BME280;15126;42.186;24.340;2023-02-23T12:56:29;99296.75;;;16.76;46.34
27729;BME280;15126;42.186;24.340;2023-02-23T12:59:10;99295.22;;;16.47;47.16
27729;BME280;15126;42.186;24.340;2023-02-23T13:01:42;99300.38;;;16.49;47.09
27729;BME280;15126;42.186;24.340;2023-02-23T13:04:35;99292.09;;;16.36;47.55
27729;BME280;15126;42.186;24.340;2023-02-23T13:07:12;99295.38;;;16.26;48.10
27729;BME280;15126;42.186;24.340;2023-02-23T13:09:50;99301.81;;;16.08;48.59
27729;BME280;15126;42.186;24.340;2023-02-23T13:12:39;99298.06;;;16.02;48.16
27729;BME280;15126;42.186;24.340;2023-02-23T13:15:19;99298.19;;;15.98;48.62
27729;BME280;15126;42.186;24.340;2023-02-23T13:17:53;99308.34;;;15.96;49.27
27729;BME280;15126;42.186;24.340;2023-02-23T13:20:26;99306.47;;;15.84;49.27
27729;BME280;15126;42.186;24.340;2023-02-23T13:23:07;99299.91;;;15.78;49.81
27729;BME280;15126;42.186;24.340;2023-02-23T13:25:44;99301.78;;;15.90;49.92
27729;BME280;15126;42.186;24.340;2023-02-23T13:28:19;99305.22;;;15.85;50.41
27729;BME280;15126;42.186;24.340;2023-02-23T13:30:47;99301.78;;;15.81;50.73
27729;BME280;15126;42.186;24.340;2023-02-23T13:33:22;99310.34;;;15.59;50.73